sensor_id;sensor_type;location;lat;lon;timestamp;P1;durP1;ratioP1;P2;durP2;ratioP2
25950;SDS011;13748;52.240;6.002;2023-07-31T00:00:14;0.60;;;0.60;;
25950;SDS011;13748;52.240;6.002;2023-07-31T00:02:41;1.13;;;0.80;;
25950;SDS011;13748;52.240;6.002;2023-07-31T00:05:08;0.70;;;0.63;;
25950;SDS011;13748;52.240;6.002;2023-07-31T00:07:36;1.57;;;0.80;;
25950;SDS011;13748;52.240;6.002;2023-07-31T00:10:03;0.80;;;0.60;;
25950;SDS011;13748;52.240;6.002;2023-07-31T00:12:30;1.67;;;0.80;;
25950;SDS011;13748;52.240;6.002;2023-07-31T00:14:57;2.43;;;0.73;;
25950;SDS011;13748;52.240;6.002;2023-07-31T00:17:24;1.00;;;0.60;;
25950;SDS011;13748;52.240;6.002;2023-07-31T00:19:51;1.03;;;0.60;;
25950;SDS011;13748;52.240;6.002;2023-07-31T00:22:18;0.63;;;0.50;;
25950;SDS011;13748;52.240;6.002;2023-07-31T00:24:45;0.38;;;0.38;;
25950;SDS011;13748;52.240;6.002;2023-07-31T00:27:12;0.70;;;0.70;;
25950;SDS011;13748;52.240;6.002;2023-07-31T00:29:39;0.60;;;0.60;;
25950;SDS011;13748;52.240;6.002;2023-07-31T00:32:06;0.97;;;0.60;;
25950;SDS011;13748;52.240;6.002;2023-07-31T00:34:33;0.67;;;0.50;;
25950;SDS011;13748;52.240;6.002;2023-07-31T00:37:00;0.70;;;0.70;;
25950;SDS011;13748;52.240;6.002;2023-07-31T00:39:27;0.80;;;0.80;;
25950;SDS011;13748;52.240;6.002;2023-07-31T00:41:55;0.57;;;0.57;;
25950;SDS011;13748;52.240;6.002;2023-07-31T00:44:22;0.60;;;0.60;;
25950;SDS011;13748;52.240;6.002;2023-07-31T00:46:49;0.60;;;0.50;;
25950;SDS011;13748;52.240;6.002;2023-07-31T00:49:17;1.37;;;0.70;;
25950;SDS011;13748;52.240;6.002;2023-07-31T00:51:44;0.70;;;0.70;;
25950;SDS011;13748;52.240;6.002;2023-07-31T00:54:12;1.20;;;0.90;;
25950;SDS011;13748;52.240;6.002;2023-07-31T00:56:44;1.90;;;0.80;;
25950;SDS011;13748;52.240;6.002;2023-07-31T00:59:12;1.10;;;0.80;;
25950;SDS011;13748;52.240;6.002;2023-07-31T01:01:39;1.60;;;0.70;;
25950;SDS011;13748;52.240;6.002;2023-07-31T01:04:06;0.70;;;0.70;;
25950;SDS011;13748;52.240;6.002;2023-07-31T01:06:40;1.73;;;1.45;;
25950;SDS011;13748;52.240;6.002;2023-07-31T01:09:40;1.30;;;0.87;;
25950;SDS011;13748;52.240;6.002;2023-07-31T01:12:14;1.97;;;0.67;;
25950;SDS011;13748;52.240;6.002;2023-07-31T01:15:01;1.60;;;0.70;;
25950;SDS011;13748;52.240;6.002;2023-07-31T01:17:29;2.00;;;0.83;;
25950;SDS011;13748;52.240;6.002;2023-07-31T01:19:57;1.07;;;0.73;;
25950;SDS011;13748;52.240;6.002;2023-07-31T01:25:46;1.10;;;1.00;;
25950;SDS011;13748;52.240;6.002;2023-07-31T01:28:38;2.37;;;0.93;;
25950;SDS011;13748;52.240;6.002;2023-07-31T01:31:14;2.07;;;1.10;;
25950;SDS011;13748;52.240;6.002;2023-07-31T01:33:44;1.83;;;1.30;;
25950;SDS011;13748;52.240;6.002;2023-07-31T01:36:12;2.58;;;1.00;;
25950;SDS011;13748;52.240;6.002;2023-07-31T01:38:39;3.80;;;1.50;;
25950;SDS011;13748;52.240;6.002;2023-07-31T01:41:06;3.72;;;1.20;;
25950;SDS011;13748;52.240;6.002;2023-07-31T01:43:33;1.73;;;1.20;;
25950;SDS011;13748;52.240;6.002;2023-07-31T01:46:00;3.63;;;1.40;;
25950;SDS011;13748;52.240;6.002;2023-07-31T01:48:27;2.22;;;1.50;;
25950;SDS011;13748;52.240;6.002;2023-07-31T01:50:53;2.97;;;1.80;;
25950;SDS011;13748;52.240;6.002;2023-07-31T01:53:20;6.60;;;2.60;;
25950;SDS011;13748;52.240;6.002;2023-07-31T01:55:47;3.53;;;1.90;;
25950;SDS011;13748;52.240;6.002;2023-07-31T01:58:14;3.80;;;2.10;;
25950;SDS011;13748;52.240;6.002;2023-07-31T02:00:41;4.43;;;2.10;;
25950;SDS011;13748;52.240;6.002;2023-07-31T02:03:09;3.90;;;2.25;;
25950;SDS011;13748;52.240;6.002;2023-07-31T02:05:36;4.68;;;2.70;;
25950;SDS011;13748;52.240;6.002;2023-07-31T02:08:09;4.30;;;2.70;;
25950;SDS011;13748;52.240;6.002;2023-07-31T02:10:36;3.07;;;2.10;;
25950;SDS011;13748;52.240;6.002;2023-07-31T02:13:03;7.78;;;2.67;;
25950;SDS011;13748;52.240;6.002;2023-07-31T02:15:31;3.83;;;2.15;;
25950;SDS011;13748;52.240;6.002;2023-07-31T02:17:58;7.00;;;2.20;;
25950;SDS011;13748;52.240;6.002;2023-07-31T02:20:28;3.38;;;2.22;;
25950;SDS011;13748;52.240;6.002;2023-07-31T02:22:55;3.38;;;2.03;;
25950;SDS011;13748;52.240;6.002;2023-07-31T02:25:23;6.20;;;2.70;;
25950;SDS011;13748;52.240;6.002;2023-07-31T02:27:50;5.70;;;2.33;;
25950;SDS011;13748;52.240;6.002;2023-07-31T02:30:17;6.13;;;3.10;;
25950;SDS011;13748;52.240;6.002;2023-07-31T02:32:44;5.88;;;2.10;;
25950;SDS011;13748;52.240;6.002;2023-07-31T02:35:11;4.97;;;2.80;;
25950;SDS011;13748;52.240;6.002;2023-07-31T02:37:42;5.78;;;2.20;;
25950;SDS011;13748;52.240;6.002;2023-07-31T02:40:09;5.28;;;2.38;;
25950;SDS011;13748;52.240;6.002;2023-07-31T02:42:36;8.60;;;2.90;;
25950;SDS011;13748;52.240;6.002;2023-07-31T02:45:03;7.18;;;3.10;;
25950;SDS011;13748;52.240;6.002;2023-07-31T02:47:31;6.50;;;3.08;;
25950;SDS011;13748;52.240;6.002;2023-07-31T02:49:58;4.28;;;2.70;;
25950;SDS011;13748;52.240;6.002;2023-07-31T02:52:26;9.95;;;3.72;;
25950;SDS011;13748;52.240;6.002;2023-07-31T02:54:53;7.18;;;3.85;;
25950;SDS011;13748;52.240;6.002;2023-07-31T02:57:20;10.35;;;3.78;;
25950;SDS011;13748;52.240;6.002;2023-07-31T02:59:46;8.43;;;3.30;;
25950;SDS011;13748;52.240;6.002;2023-07-31T03:02:13;6.55;;;3.80;;
25950;SDS011;13748;52.240;6.002;2023-07-31T03:04:44;11.57;;;4.60;;
25950;SDS011;13748;52.240;6.002;2023-07-31T03:07:11;13.60;;;5.45;;
25950;SDS011;13748;52.240;6.002;2023-07-31T03:09:39;20.27;;;6.13;;
25950;SDS011;13748;52.240;6.002;2023-07-31T03:12:07;16.63;;;6.43;;
25950;SDS011;13748;52.240;6.002;2023-07-31T03:14:34;13.07;;;6.40;;
25950;SDS011;13748;52.240;6.002;2023-07-31T03:17:01;17.55;;;6.43;;
25950;SDS011;13748;52.240;6.002;2023-07-31T03:19:30;13.60;;;6.45;;
25950;SDS011;13748;52.240;6.002;2023-07-31T03:21:58;15.63;;;6.88;;
25950;SDS011;13748;52.240;6.002;2023-07-31T03:24:25;19.10;;;6.45;;
25950;SDS011;13748;52.240;6.002;2023-07-31T03:26:53;15.82;;;5.78;;
25950;SDS011;13748;52.240;6.002;2023-07-31T03:29:19;21.02;;;6.07;;
25950;SDS011;13748;52.240;6.002;2023-07-31T03:31:51;20.20;;;6.93;;
25950;SDS011;13748;52.240;6.002;2023-07-31T03:34:18;16.20;;;6.43;;
25950;SDS011;13748;52.240;6.002;2023-07-31T03:36:45;19.85;;;6.80;;
25950;SDS011;13748;52.240;6.002;2023-07-31T03:39:24;16.25;;;7.05;;
25950;SDS011;13748;52.240;6.002;2023-07-31T03:41:53;21.13;;;7.50;;
25950;SDS011;13748;52.240;6.002;2023-07-31T03:44:24;25.73;;;7.57;;
25950;SDS011;13748;52.240;6.002;2023-07-31T03:46:52;20.00;;;6.90;;
25950;SDS011;13748;52.240;6.002;2023-07-31T03:49:24;24.05;;;7.80;;
25950;SDS011;13748;52.240;6.002;2023-07-31T03:51:55;20.20;;;7.47;;
25950;SDS011;13748;52.240;6.002;2023-07-31T03:54:22;22.10;;;7.63;;
25950;SDS011;13748;52.240;6.002;2023-07-31T03:59:25;21.60;;;8.73;;
25950;SDS011;13748;52.240;6.002;2023-07-31T04:02:02;18.63;;;7.57;;
25950;SDS011;13748;52.240;6.002;2023-07-31T04:04:29;19.80;;;7.32;;
25950;SDS011;13748;52.240;6.002;2023-07-31T04:07:02;21.40;;;7.82;;
25950;SDS011;13748;52.240;6.002;2023-07-31T04:09:37;25.92;;;8.38;;
25950;SDS011;13748;52.240;6.002;2023-07-31T04:12:05;24.40;;;7.18;;
25950;SDS011;13748;52.240;6.002;2023-07-31T04:14:38;19.15;;;7.53;;
25950;SDS011;13748;52.240;6.002;2023-07-31T04:17:13;18.08;;;8.27;;
25950;SDS011;13748;52.240;6.002;2023-07-31T04:19:56;19.23;;;7.25;;
25950;SDS011;13748;52.240;6.002;2023-07-31T04:22:32;22.92;;;7.40;;
25950;SDS011;13748;52.240;6.002;2023-07-31T04:25:06;22.05;;;7.20;;
25950;SDS011;13748;52.240;6.002;2023-07-31T04:36:21;18.30;;;6.55;;
25950;SDS011;13748;52.240;6.002;2023-07-31T04:39:02;24.27;;;7.38;;
25950;SDS011;13748;52.240;6.002;2023-07-31T04:41:34;19.45;;;7.25;;
25950;SDS011;13748;52.240;6.002;2023-07-31T04:44:03;25.45;;;7.63;;
25950;SDS011;13748;52.240;6.002;2023-07-31T04:47:15;14.65;;;6.40;;
25950;SDS011;13748;52.240;6.002;2023-07-31T04:52:57;13.82;;;5.75;;
25950;SDS011;13748;52.240;6.002;2023-07-31T04:55:24;18.48;;;6.70;;
25950;SDS011;13748;52.240;6.002;2023-07-31T04:57:53;20.58;;;6.65;;
25950;SDS011;13748;52.240;6.002;2023-07-31T05:00:22;22.50;;;7.53;;
25950;SDS011;13748;52.240;6.002;2023-07-31T05:03:07;21.15;;;7.53;;
25950;SDS011;13748;52.240;6.002;2023-07-31T05:06:16;21.08;;;7.05;;
25950;SDS011;13748;52.240;6.002;2023-07-31T05:08:54;22.63;;;6.93;;
25950;SDS011;13748;52.240;6.002;2023-07-31T05:24:40;22.17;;;6.80;;
25950;SDS011;13748;52.240;6.002;2023-07-31T05:27:37;25.23;;;6.77;;
25950;SDS011;13748;52.240;6.002;2023-07-31T05:31:01;21.60;;;7.32;;
25950;SDS011;13748;52.240;6.002;2023-07-31T05:33:41;13.98;;;6.32;;
25950;SDS011;13748;52.240;6.002;2023-07-31T05:39:53;19.63;;;6.70;;
25950;SDS011;13748;52.240;6.002;2023-07-31T05:42:55;14.65;;;5.32;;
25950;SDS011;13748;52.240;6.002;2023-07-31T05:45:46;21.58;;;6.40;;
25950;SDS011;13748;52.240;6.002;2023-07-31T05:52:20;16.65;;;6.15;;
25950;SDS011;13748;52.240;6.002;2023-07-31T06:22:18;14.65;;;6.35;;
25950;SDS011;13748;52.240;6.002;2023-07-31T06:34:48;9.10;;;4.75;;
25950;SDS011;13748;52.240;6.002;2023-07-31T06:37:30;7.75;;;4.43;;
25950;SDS011;13748;52.240;6.002;2023-07-31T06:40:13;8.55;;;5.20;;
25950;SDS011;13748;52.240;6.002;2023-07-31T06:42:56;7.20;;;3.97;;
25950;SDS011;13748;52.240;6.002;2023-07-31T06:45:39;7.15;;;3.97;;
25950;SDS011;13748;52.240;6.002;2023-07-31T06:48:25;5.53;;;3.83;;
25950;SDS011;13748;52.240;6.002;2023-07-31T06:50:57;7.35;;;4.25;;
25950;SDS011;13748;52.240;6.002;2023-07-31T06:53:41;8.07;;;4.07;;
25950;SDS011;13748;52.240;6.002;2023-07-31T06:56:15;8.93;;;4.40;;
25950;SDS011;13748;52.240;6.002;2023-07-31T07:12:17;5.53;;;2.83;;
25950;SDS011;13748;52.240;6.002;2023-07-31T07:14:51;7.30;;;3.35;;
25950;SDS011;13748;52.240;6.002;2023-07-31T07:20:52;5.93;;;3.30;;
25950;SDS011;13748;52.240;6.002;2023-07-31T07:23:40;5.82;;;2.90;;
25950;SDS011;13748;52.240;6.002;2023-07-31T07:29:12;4.88;;;2.55;;
25950;SDS011;13748;52.240;6.002;2023-07-31T07:38:21;3.78;;;2.50;;
25950;SDS011;13748;52.240;6.002;2023-07-31T07:41:36;3.88;;;2.35;;
25950;SDS011;13748;52.240;6.002;2023-07-31T07:44:56;4.43;;;2.10;;
25950;SDS011;13748;52.240;6.002;2023-07-31T07:47:42;3.97;;;2.10;;
25950;SDS011;13748;52.240;6.002;2023-07-31T07:50:40;2.28;;;1.80;;
25950;SDS011;13748;52.240;6.002;2023-07-31T07:53:10;5.20;;;2.40;;
25950;SDS011;13748;52.240;6.002;2023-07-31T07:59:02;4.25;;;2.10;;
25950;SDS011;13748;52.240;6.002;2023-07-31T08:02:04;2.78;;;2.15;;
25950;SDS011;13748;52.240;6.002;2023-07-31T08:04:51;2.85;;;1.95;;
25950;SDS011;13748;52.240;6.002;2023-07-31T08:07:43;1.90;;;1.73;;
25950;SDS011;13748;52.240;6.002;2023-07-31T08:10:19;3.20;;;1.77;;
25950;SDS011;13748;52.240;6.002;2023-07-31T08:13:27;2.35;;;1.50;;
25950;SDS011;13748;52.240;6.002;2023-07-31T08:16:22;1.88;;;1.40;;
25950;SDS011;13748;52.240;6.002;2023-07-31T08:18:50;2.28;;;1.50;;
25950;SDS011;13748;52.240;6.002;2023-07-31T08:21:27;1.95;;;1.52;;
25950;SDS011;13748;52.240;6.002;2023-07-31T08:24:00;2.38;;;1.60;;
25950;SDS011;13748;52.240;6.002;2023-07-31T08:26:43;3.92;;;2.05;;
25950;SDS011;13748;52.240;6.002;2023-07-31T08:29:24;3.55;;;2.17;;
25950;SDS011;13748;52.240;6.002;2023-07-31T08:31:57;2.67;;;2.03;;
25950;SDS011;13748;52.240;6.002;2023-07-31T08:34:25;2.30;;;1.80;;
25950;SDS011;13748;52.240;6.002;2023-07-31T08:36:58;3.25;;;2.42;;
25950;SDS011;13748;52.240;6.002;2023-07-31T08:39:32;3.28;;;2.05;;
25950;SDS011;13748;52.240;6.002;2023-07-31T08:42:49;2.78;;;2.20;;
25950;SDS011;13748;52.240;6.002;2023-07-31T08:45:21;3.10;;;2.20;;
25950;SDS011;13748;52.240;6.002;2023-07-31T08:47:58;2.78;;;2.30;;
25950;SDS011;13748;52.240;6.002;2023-07-31T08:50:35;2.75;;;2.45;;
25950;SDS011;13748;52.240;6.002;2023-07-31T08:53:23;3.00;;;2.40;;
25950;SDS011;13748;52.240;6.002;2023-07-31T08:56:31;2.75;;;2.45;;
25950;SDS011;13748;52.240;6.002;2023-07-31T08:59:18;3.47;;;2.70;;
25950;SDS011;13748;52.240;6.002;2023-07-31T09:01:54;2.72;;;2.30;;
25950;SDS011;13748;52.240;6.002;2023-07-31T09:08:12;2.80;;;2.50;;
25950;SDS011;13748;52.240;6.002;2023-07-31T09:10:59;5.00;;;2.60;;
25950;SDS011;13748;52.240;6.002;2023-07-31T09:13:32;2.55;;;2.35;;
25950;SDS011;13748;52.240;6.002;2023-07-31T09:16:30;2.38;;;2.17;;
25950;SDS011;13748;52.240;6.002;2023-07-31T09:19:02;2.25;;;2.00;;
25950;SDS011;13748;52.240;6.002;2023-07-31T09:21:55;3.50;;;2.28;;
25950;SDS011;13748;52.240;6.002;2023-07-31T09:24:32;2.70;;;2.25;;
25950;SDS011;13748;52.240;6.002;2023-07-31T09:27:07;2.80;;;2.25;;
25950;SDS011;13748;52.240;6.002;2023-07-31T09:30:04;2.92;;;2.25;;
25950;SDS011;13748;52.240;6.002;2023-07-31T09:32:50;3.70;;;2.30;;
25950;SDS011;13748;52.240;6.002;2023-07-31T09:35:49;3.08;;;2.22;;
25950;SDS011;13748;52.240;6.002;2023-07-31T09:38:37;2.53;;;2.13;;
25950;SDS011;13748;52.240;6.002;2023-07-31T09:44:39;3.38;;;2.13;;
25950;SDS011;13748;52.240;6.002;2023-07-31T09:50:42;3.50;;;2.00;;
25950;SDS011;13748;52.240;6.002;2023-07-31T09:53:20;4.30;;;1.80;;
25950;SDS011;13748;52.240;6.002;2023-07-31T09:56:01;3.55;;;2.35;;
25950;SDS011;13748;52.240;6.002;2023-07-31T09:58:35;2.83;;;2.30;;
25950;SDS011;13748;52.240;6.002;2023-07-31T10:01:20;2.50;;;2.15;;
25950;SDS011;13748;52.240;6.002;2023-07-31T10:04:10;2.45;;;2.25;;
25950;SDS011;13748;52.240;6.002;2023-07-31T10:06:59;2.70;;;2.25;;
25950;SDS011;13748;52.240;6.002;2023-07-31T10:09:48;3.83;;;2.22;;
25950;SDS011;13748;52.240;6.002;2023-07-31T10:13:07;2.58;;;2.22;;
25950;SDS011;13748;52.240;6.002;2023-07-31T10:16:05;3.13;;;2.40;;
25950;SDS011;13748;52.240;6.002;2023-07-31T10:18:53;3.15;;;2.85;;
25950;SDS011;13748;52.240;6.002;2023-07-31T10:21:24;3.92;;;3.17;;
25950;SDS011;13748;52.240;6.002;2023-07-31T10:24:10;4.05;;;3.13;;
25950;SDS011;13748;52.240;6.002;2023-07-31T10:26:39;7.00;;;3.45;;
25950;SDS011;13748;52.240;6.002;2023-07-31T10:29:12;3.88;;;3.25;;
25950;SDS011;13748;52.240;6.002;2023-07-31T10:31:58;6.60;;;3.83;;
25950;SDS011;13748;52.240;6.002;2023-07-31T10:34:40;5.28;;;3.47;;
25950;SDS011;13748;52.240;6.002;2023-07-31T10:37:27;5.03;;;3.70;;
25950;SDS011;13748;52.240;6.002;2023-07-31T10:42:57;4.40;;;4.00;;
25950;SDS011;13748;52.240;6.002;2023-07-31T10:45:34;5.95;;;4.60;;
25950;SDS011;13748;52.240;6.002;2023-07-31T10:48:16;6.40;;;4.63;;
25950;SDS011;13748;52.240;6.002;2023-07-31T10:50:48;6.00;;;4.55;;
25950;SDS011;13748;52.240;6.002;2023-07-31T10:53:24;6.40;;;4.72;;
25950;SDS011;13748;52.240;6.002;2023-07-31T10:55:58;7.13;;;5.57;;
25950;SDS011;13748;52.240;6.002;2023-07-31T11:01:05;6.70;;;5.20;;
25950;SDS011;13748;52.240;6.002;2023-07-31T11:03:43;7.45;;;5.35;;
25950;SDS011;13748;52.240;6.002;2023-07-31T11:06:15;8.45;;;5.32;;
25950;SDS011;13748;52.240;6.002;2023-07-31T11:08:46;7.00;;;5.25;;
25950;SDS011;13748;52.240;6.002;2023-07-31T11:11:16;8.27;;;5.20;;
25950;SDS011;13748;52.240;6.002;2023-07-31T11:13:50;6.88;;;5.20;;
25950;SDS011;13748;52.240;6.002;2023-07-31T11:16:21;6.13;;;5.28;;
25950;SDS011;13748;52.240;6.002;2023-07-31T11:18:49;6.88;;;4.60;;
25950;SDS011;13748;52.240;6.002;2023-07-31T11:21:19;7.75;;;5.25;;
25950;SDS011;13748;52.240;6.002;2023-07-31T11:23:53;6.47;;;5.18;;
25950;SDS011;13748;52.240;6.002;2023-07-31T11:26:24;5.43;;;4.70;;
25950;SDS011;13748;52.240;6.002;2023-07-31T11:28:51;5.07;;;4.50;;
25950;SDS011;13748;52.240;6.002;2023-07-31T11:31:18;6.75;;;5.25;;
25950;SDS011;13748;52.240;6.002;2023-07-31T11:33:45;6.35;;;4.75;;
25950;SDS011;13748;52.240;6.002;2023-07-31T11:36:15;5.75;;;4.65;;
25950;SDS011;13748;52.240;6.002;2023-07-31T11:38:43;4.55;;;3.95;;
25950;SDS011;13748;52.240;6.002;2023-07-31T11:41:10;7.93;;;4.28;;
25950;SDS011;13748;52.240;6.002;2023-07-31T11:43:39;5.47;;;4.13;;
25950;SDS011;13748;52.240;6.002;2023-07-31T11:46:07;4.72;;;4.13;;
25950;SDS011;13748;52.240;6.002;2023-07-31T11:48:36;5.45;;;3.80;;
25950;SDS011;13748;52.240;6.002;2023-07-31T11:51:04;5.53;;;3.95;;
25950;SDS011;13748;52.240;6.002;2023-07-31T11:53:36;5.78;;;3.97;;
25950;SDS011;13748;52.240;6.002;2023-07-31T11:56:10;4.20;;;3.78;;
25950;SDS011;13748;52.240;6.002;2023-07-31T11:58:40;4.22;;;3.10;;
25950;SDS011;13748;52.240;6.002;2023-07-31T12:01:08;3.88;;;3.47;;
25950;SDS011;13748;52.240;6.002;2023-07-31T12:03:35;5.07;;;3.45;;
25950;SDS011;13748;52.240;6.002;2023-07-31T12:06:03;3.78;;;3.28;;
25950;SDS011;13748;52.240;6.002;2023-07-31T12:08:30;3.38;;;2.38;;
25950;SDS011;13748;52.240;6.002;2023-07-31T12:11:09;2.72;;;2.42;;
25950;SDS011;13748;52.240;6.002;2023-07-31T12:13:36;2.42;;;2.17;;
25950;SDS011;13748;52.240;6.002;2023-07-31T12:16:04;2.63;;;2.40;;
25950;SDS011;13748;52.240;6.002;2023-07-31T12:18:37;2.90;;;2.55;;
25950;SDS011;13748;52.240;6.002;2023-07-31T12:21:06;3.28;;;2.65;;
25950;SDS011;13748;52.240;6.002;2023-07-31T12:23:35;3.70;;;2.67;;
25950;SDS011;13748;52.240;6.002;2023-07-31T12:26:06;3.60;;;3.13;;
25950;SDS011;13748;52.240;6.002;2023-07-31T12:28:45;4.22;;;3.03;;
25950;SDS011;13748;52.240;6.002;2023-07-31T12:31:17;3.17;;;2.88;;
25950;SDS011;13748;52.240;6.002;2023-07-31T12:33:48;3.08;;;2.78;;
25950;SDS011;13748;52.240;6.002;2023-07-31T12:36:21;4.35;;;3.30;;
25950;SDS011;13748;52.240;6.002;2023-07-31T12:38:49;5.13;;;3.90;;
25950;SDS011;13748;52.240;6.002;2023-07-31T12:41:30;5.55;;;3.65;;
25950;SDS011;13748;52.240;6.002;2023-07-31T12:44:07;6.18;;;3.63;;
25950;SDS011;13748;52.240;6.002;2023-07-31T12:46:36;5.30;;;3.65;;
25950;SDS011;13748;52.240;6.002;2023-07-31T12:49:06;5.70;;;3.75;;
25950;SDS011;13748;52.240;6.002;2023-07-31T12:51:35;4.95;;;3.83;;
25950;SDS011;13748;52.240;6.002;2023-07-31T12:54:02;6.07;;;3.55;;
25950;SDS011;13748;52.240;6.002;2023-07-31T12:56:29;5.57;;;3.97;;
25950;SDS011;13748;52.240;6.002;2023-07-31T12:58:56;5.60;;;3.80;;
25950;SDS011;13748;52.240;6.002;2023-07-31T13:01:23;4.40;;;3.50;;
25950;SDS011;13748;52.240;6.002;2023-07-31T13:03:50;4.90;;;3.92;;
25950;SDS011;13748;52.240;6.002;2023-07-31T13:06:17;4.32;;;3.70;;
25950;SDS011;13748;52.240;6.002;2023-07-31T13:08:44;4.35;;;3.40;;
25950;SDS011;13748;52.240;6.002;2023-07-31T13:11:11;4.13;;;3.20;;
25950;SDS011;13748;52.240;6.002;2023-07-31T13:13:37;4.63;;;3.10;;
25950;SDS011;13748;52.240;6.002;2023-07-31T13:16:04;3.20;;;2.90;;
25950;SDS011;13748;52.240;6.002;2023-07-31T13:18:31;4.25;;;3.42;;
25950;SDS011;13748;52.240;6.002;2023-07-31T13:21:00;3.25;;;2.95;;
25950;SDS011;13748;52.240;6.002;2023-07-31T13:23:27;3.50;;;2.75;;
25950;SDS011;13748;52.240;6.002;2023-07-31T13:25:54;3.63;;;2.92;;
25950;SDS011;13748;52.240;6.002;2023-07-31T13:28:21;2.92;;;2.63;;
25950;SDS011;13748;52.240;6.002;2023-07-31T13:30:48;3.60;;;3.00;;
25950;SDS011;13748;52.240;6.002;2023-07-31T13:33:15;3.25;;;2.90;;
25950;SDS011;13748;52.240;6.002;2023-07-31T13:36:01;4.53;;;3.38;;
25950;SDS011;13748;52.240;6.002;2023-07-31T13:38:28;3.40;;;2.83;;
25950;SDS011;13748;52.240;6.002;2023-07-31T13:40:55;3.50;;;3.08;;
25950;SDS011;13748;52.240;6.002;2023-07-31T13:43:23;3.55;;;3.08;;
25950;SDS011;13748;52.240;6.002;2023-07-31T13:45:52;4.00;;;3.60;;
25950;SDS011;13748;52.240;6.002;2023-07-31T13:48:23;4.75;;;4.00;;
25950;SDS011;13748;52.240;6.002;2023-07-31T13:50:54;5.10;;;4.40;;
25950;SDS011;13748;52.240;6.002;2023-07-31T13:53:20;9.20;;;5.18;;
25950;SDS011;13748;52.240;6.002;2023-07-31T13:55:47;5.10;;;4.50;;
25950;SDS011;13748;52.240;6.002;2023-07-31T13:58:15;6.65;;;4.80;;
25950;SDS011;13748;52.240;6.002;2023-07-31T14:00:42;5.32;;;4.82;;
25950;SDS011;13748;52.240;6.002;2023-07-31T14:03:09;5.55;;;4.70;;
25950;SDS011;13748;52.240;6.002;2023-07-31T14:05:36;6.03;;;4.75;;
25950;SDS011;13748;52.240;6.002;2023-07-31T14:08:03;7.35;;;4.72;;
25950;SDS011;13748;52.240;6.002;2023-07-31T14:10:30;6.47;;;4.72;;
25950;SDS011;13748;52.240;6.002;2023-07-31T14:12:57;6.30;;;4.93;;
25950;SDS011;13748;52.240;6.002;2023-07-31T14:15:24;6.85;;;5.18;;
25950;SDS011;13748;52.240;6.002;2023-07-31T14:17:51;6.53;;;5.07;;
25950;SDS011;13748;52.240;6.002;2023-07-31T14:20:26;6.95;;;5.40;;
25950;SDS011;13748;52.240;6.002;2023-07-31T14:22:53;6.05;;;4.88;;
25950;SDS011;13748;52.240;6.002;2023-07-31T14:25:21;6.45;;;4.60;;
25950;SDS011;13748;52.240;6.002;2023-07-31T14:27:48;6.30;;;4.80;;
25950;SDS011;13748;52.240;6.002;2023-07-31T14:30:16;4.70;;;4.18;;
25950;SDS011;13748;52.240;6.002;2023-07-31T14:32:44;6.75;;;4.82;;
25950;SDS011;13748;52.240;6.002;2023-07-31T14:35:11;6.60;;;4.55;;
25950;SDS011;13748;52.240;6.002;2023-07-31T14:37:44;6.00;;;4.50;;
25950;SDS011;13748;52.240;6.002;2023-07-31T14:40:14;6.22;;;4.65;;
25950;SDS011;13748;52.240;6.002;2023-07-31T14:42:42;5.80;;;4.53;;
25950;SDS011;13748;52.240;6.002;2023-07-31T14:45:09;5.88;;;4.80;;
25950;SDS011;13748;52.240;6.002;2023-07-31T14:47:36;6.95;;;4.75;;
25950;SDS011;13748;52.240;6.002;2023-07-31T14:50:03;6.72;;;4.40;;
25950;SDS011;13748;52.240;6.002;2023-07-31T14:52:30;6.55;;;5.05;;
25950;SDS011;13748;52.240;6.002;2023-07-31T14:54:58;8.75;;;5.30;;
25950;SDS011;13748;52.240;6.002;2023-07-31T14:57:24;6.45;;;4.95;;
25950;SDS011;13748;52.240;6.002;2023-07-31T14:59:52;8.70;;;5.00;;
25950;SDS011;13748;52.240;6.002;2023-07-31T15:02:19;7.30;;;5.20;;
25950;SDS011;13748;52.240;6.002;2023-07-31T15:04:47;7.30;;;5.50;;
25950;SDS011;13748;52.240;6.002;2023-07-31T15:07:14;9.52;;;5.68;;
25950;SDS011;13748;52.240;6.002;2023-07-31T15:09:44;7.97;;;4.32;;
25950;SDS011;13748;52.240;6.002;2023-07-31T15:12:10;5.93;;;4.30;;
25950;SDS011;13748;52.240;6.002;2023-07-31T15:14:37;6.70;;;4.15;;
25950;SDS011;13748;52.240;6.002;2023-07-31T15:17:04;5.93;;;3.90;;
25950;SDS011;13748;52.240;6.002;2023-07-31T15:19:31;5.82;;;4.03;;
25950;SDS011;13748;52.240;6.002;2023-07-31T15:22:01;6.43;;;3.72;;
25950;SDS011;13748;52.240;6.002;2023-07-31T15:24:40;6.78;;;4.22;;
25950;SDS011;13748;52.240;6.002;2023-07-31T15:27:10;5.72;;;4.25;;
25950;SDS011;13748;52.240;6.002;2023-07-31T15:29:37;7.38;;;4.50;;
25950;SDS011;13748;52.240;6.002;2023-07-31T15:32:04;7.55;;;4.13;;
25950;SDS011;13748;52.240;6.002;2023-07-31T15:34:33;6.85;;;4.30;;
25950;SDS011;13748;52.240;6.002;2023-07-31T15:37:00;8.40;;;4.15;;
25950;SDS011;13748;52.240;6.002;2023-07-31T15:39:27;7.20;;;4.55;;
25950;SDS011;13748;52.240;6.002;2023-07-31T15:41:54;6.97;;;3.90;;
25950;SDS011;13748;52.240;6.002;2023-07-31T15:44:21;7.78;;;4.50;;
25950;SDS011;13748;52.240;6.002;2023-07-31T15:46:48;6.07;;;4.30;;
25950;SDS011;13748;52.240;6.002;2023-07-31T15:49:15;7.43;;;4.15;;
25950;SDS011;13748;52.240;6.002;2023-07-31T15:51:41;5.32;;;3.58;;
25950;SDS011;13748;52.240;6.002;2023-07-31T15:54:08;9.70;;;3.85;;
25950;SDS011;13748;52.240;6.002;2023-07-31T15:56:35;8.20;;;4.07;;
25950;SDS011;13748;52.240;6.002;2023-07-31T15:59:03;5.70;;;4.05;;
25950;SDS011;13748;52.240;6.002;2023-07-31T16:01:30;6.70;;;4.25;;
25950;SDS011;13748;52.240;6.002;2023-07-31T16:03:57;6.03;;;3.45;;
25950;SDS011;13748;52.240;6.002;2023-07-31T16:06:24;6.55;;;4.18;;
25950;SDS011;13748;52.240;6.002;2023-07-31T16:08:51;6.70;;;4.18;;
25950;SDS011;13748;52.240;6.002;2023-07-31T16:11:21;11.25;;;4.47;;
25950;SDS011;13748;52.240;6.002;2023-07-31T16:13:48;6.93;;;3.75;;
25950;SDS011;13748;52.240;6.002;2023-07-31T16:16:14;6.63;;;3.90;;
25950;SDS011;13748;52.240;6.002;2023-07-31T16:18:41;3.72;;;3.13;;
25950;SDS011;13748;52.240;6.002;2023-07-31T16:21:08;4.75;;;3.45;;
25950;SDS011;13748;52.240;6.002;2023-07-31T16:23:35;4.20;;;3.22;;
25950;SDS011;13748;52.240;6.002;2023-07-31T16:26:02;3.85;;;2.72;;
25950;SDS011;13748;52.240;6.002;2023-07-31T16:28:29;7.80;;;3.00;;
25950;SDS011;13748;52.240;6.002;2023-07-31T16:30:56;4.88;;;3.50;;
25950;SDS011;13748;52.240;6.002;2023-07-31T16:33:23;6.70;;;3.22;;
25950;SDS011;13748;52.240;6.002;2023-07-31T16:35:50;6.10;;;3.45;;
25950;SDS011;13748;52.240;6.002;2023-07-31T16:38:17;5.30;;;2.70;;
25950;SDS011;13748;52.240;6.002;2023-07-31T16:40:44;5.05;;;2.70;;
25950;SDS011;13748;52.240;6.002;2023-07-31T16:43:12;2.90;;;2.40;;
25950;SDS011;13748;52.240;6.002;2023-07-31T16:45:39;3.67;;;2.40;;
25950;SDS011;13748;52.240;6.002;2023-07-31T16:48:06;5.22;;;2.53;;
25950;SDS011;13748;52.240;6.002;2023-07-31T16:50:33;3.72;;;2.55;;
25950;SDS011;13748;52.240;6.002;2023-07-31T16:53:00;4.90;;;2.20;;
25950;SDS011;13748;52.240;6.002;2023-07-31T16:55:27;3.65;;;2.08;;
25950;SDS011;13748;52.240;6.002;2023-07-31T16:57:55;3.47;;;2.25;;
25950;SDS011;13748;52.240;6.002;2023-07-31T17:00:22;2.88;;;1.80;;
25950;SDS011;13748;52.240;6.002;2023-07-31T17:03:01;1.80;;;1.65;;
25950;SDS011;13748;52.240;6.002;2023-07-31T17:05:28;2.25;;;1.65;;
25950;SDS011;13748;52.240;6.002;2023-07-31T17:07:55;3.33;;;1.73;;
25950;SDS011;13748;52.240;6.002;2023-07-31T17:10:22;2.58;;;1.00;;
25950;SDS011;13748;52.240;6.002;2023-07-31T17:12:49;2.17;;;1.40;;
25950;SDS011;13748;52.240;6.002;2023-07-31T17:15:16;1.10;;;0.95;;
25950;SDS011;13748;52.240;6.002;2023-07-31T17:17:43;1.70;;;1.30;;
25950;SDS011;13748;52.240;6.002;2023-07-31T17:20:11;2.03;;;0.90;;